Time;durP1;ratioP1;P1;durP2;ratioP2;P2;SDS_P1;SDS_P2;PMS_P1;PMS_P2;Temp;Humidity;BMP_temperature;BMP_pressure;BME280_temperature;BME280_humidity;BME280_pressure;Samples;Min_cycle;Max_cycle;Signal;HPM_P1;HPM_P2
2022/07/27 00:01:21;;;;;;;3.85;1.25;;;14.90;97.30;;;;;;5064775;28;20040;-59
2022/07/27 00:03:47;;;;;;;5.88;1.65;;;14.90;97.40;;;;;;5067123;28;20044;-59
2022/07/27 00:06:13;;;;;;;3.67;1.42;;;14.90;97.50;;;;;;5048739;28;20591;-58
2022/07/27 00:08:39;;;;;;;2.65;1.00;;;14.90;97.50;;;;;;5067437;28;20119;-60
2022/07/27 00:11:06;;;;;;;5.68;1.13;;;14.90;97.40;;;;;;5042861;28;20136;-58
2022/07/27 00:13:32;;;;;;;6.60;1.95;;;14.90;97.40;;;;;;5052599;28;20040;-59
2022/07/27 00:15:58;;;;;;;4.15;1.25;;;14.90;97.50;;;;;;5071562;28;20043;-59
2022/07/27 00:18:24;;;;;;;5.65;1.55;;;14.90;97.60;;;;;;5067478;28;20082;-59
2022/07/27 00:20:49;;;;;;;4.53;1.23;;;14.80;97.60;;;;;;5069406;28;20117;-60
2022/07/27 00:23:15;;;;;;;6.78;1.50;;;14.80;97.70;;;;;;5050804;28;20040;-59
2022/07/27 00:25:41;;;;;;;7.22;1.42;;;14.80;97.70;;;;;;5070034;28;20424;-60
2022/07/27 00:28:07;;;;;;;6.03;1.50;;;14.80;97.80;;;;;;5074397;28;20060;-60
2022/07/27 00:30:32;;;;;;;5.35;1.35;;;14.80;97.90;;;;;;5073546;28;20061;-60
2022/07/27 00:32:59;;;;;;;2.75;1.25;;;14.80;98.00;;;;;;5068480;28;20045;-60
2022/07/27 00:35:25;;;;;;;4.45;1.42;;;14.80;98.10;;;;;;5055249;28;20060;-59
2022/07/27 00:37:51;;;;;;;6.93;1.85;;;14.80;98.20;;;;;;5072047;28;20119;-59
2022/07/27 00:40:17;;;;;;;7.55;1.60;;;14.70;98.30;;;;;;5073909;28;20584;-59
2022/07/27 00:42:42;;;;;;;5.00;1.27;;;14.70;98.40;;;;;;5049147;28;20071;-60
2022/07/27 00:45:08;;;;;;;6.18;1.25;;;14.70;98.50;;;;;;5070918;28;20845;-59
2022/07/27 00:47:34;;;;;;;6.35;1.40;;;14.60;98.60;;;;;;5071504;28;20056;-58
2022/07/27 00:50:00;;;;;;;5.38;1.58;;;14.60;98.60;;;;;;5078386;28;20093;-59
2022/07/27 00:52:27;;;;;;;11.50;1.90;;;14.50;98.60;;;;;;5060572;28;20076;-59
2022/07/27 00:54:53;;;;;;;2.53;1.42;;;14.50;98.70;;;;;;5054719;28;20048;-59
2022/07/27 00:57:23;;;;;;;5.18;2.03;;;14.40;98.80;;;;;;5072288;28;20518;-59
2022/07/27 00:59:49;;;;;;;4.45;1.67;;;14.40;99.00;;;;;;5071032;28;20048;-59
2022/07/27 01:02:15;;;;;;;5.10;1.60;;;14.40;99.10;;;;;;5059277;28;20109;-60
2022/07/27 01:04:41;;;;;;;9.57;2.00;;;14.40;99.30;;;;;;5072189;28;20127;-60
2022/07/27 01:07:07;;;;;;;6.78;1.90;;;14.40;99.50;;;;;;5073570;28;20131;-59
2022/07/27 01:12:20;;;;;;;12.82;1.73;;;14.30;99.90;;;;;;5075947;28;20048;-60
2022/07/27 01:14:47;;;;;;;3.20;1.70;;;14.30;99.90;;;;;;5059032;28;20052;-60
2022/07/27 01:17:13;;;;;;;6.45;1.65;;;14.30;99.90;;;;;;5052594;28;20390;-60
2022/07/27 01:19:39;;;;;;;4.53;1.73;;;14.20;99.90;;;;;;5070919;28;20041;-59
2022/07/27 01:22:05;;;;;;;6.28;1.80;;;14.30;99.90;;;;;;5059236;28;20044;-60
2022/07/27 01:24:32;;;;;;;4.90;1.95;;;14.30;99.90;;;;;;5072600;28;20099;-60
2022/07/27 01:27:01;;;;;;;6.28;2.47;;;14.20;99.90;;;;;;5071091;28;20135;-59
2022/07/27 01:29:28;;;;;;;6.07;1.70;;;14.20;99.90;;;;;;5066290;28;20071;-60
2022/07/27 01:31:55;;;;;;;6.45;1.52;;;14.20;99.90;;;;;;5049053;28;20049;-60
2022/07/27 01:34:21;;;;;;;10.15;1.70;;;14.20;99.90;;;;;;5070645;28;20124;-59
2022/07/27 01:36:47;;;;;;;6.13;1.65;;;14.20;99.90;;;;;;5070709;28;20048;-60
2022/07/27 01:39:14;;;;;;;3.25;1.35;;;14.20;99.90;;;;;;5046647;28;20051;-60
2022/07/27 01:41:40;;;;;;;4.40;1.60;;;14.10;99.90;;;;;;5072937;28;20090;-60
2022/07/27 01:44:06;;;;;;;4.90;1.65;;;14.10;99.90;;;;;;5052972;28;20048;-59
2022/07/27 01:46:32;;;;;;;3.65;1.50;;;14.10;99.90;;;;;;5043258;28;20041;-60
2022/07/27 01:48:58;;;;;;;4.45;1.60;;;14.00;99.90;;;;;;5048009;28;20438;-61
2022/07/27 01:51:23;;;;;;;4.95;1.30;;;14.00;99.90;;;;;;5070896;28;20052;-60
2022/07/27 01:53:49;;;;;;;5.20;1.50;;;14.00;99.90;;;;;;5057216;28;20048;-59
2022/07/27 01:56:15;;;;;;;5.78;1.63;;;14.00;99.90;;;;;;5056345;28;20040;-59
2022/07/27 01:58:42;;;;;;;3.28;1.33;;;13.90;99.90;;;;;;5052537;28;20049;-59
2022/07/27 02:01:09;;;;;;;3.95;1.60;;;13.90;99.90;;;;;;5071516;28;20048;-59
2022/07/27 02:03:35;;;;;;;7.15;1.88;;;13.90;99.90;;;;;;5055109;28;20131;-59
2022/07/27 02:06:02;;;;;;;4.55;1.60;;;13.90;99.90;;;;;;5072149;28;20052;-60
2022/07/27 02:08:28;;;;;;;6.28;1.50;;;13.90;99.90;;;;;;5070232;28;20772;-60
2022/07/27 02:13:46;;;;;;;4.00;1.63;;;13.80;99.90;;;;;;5070343;28;20047;-61
2022/07/27 02:16:12;;;;;;;4.18;1.73;;;13.80;99.90;;;;;;5073777;28;20474;-59
2022/07/27 02:18:38;;;;;;;4.70;1.67;;;13.80;99.90;;;;;;5073163;28;20532;-60
2022/07/27 02:21:05;;;;;;;9.02;1.90;;;13.70;99.90;;;;;;5051578;28;20375;-59
2022/07/27 02:23:31;;;;;;;4.70;1.55;;;13.70;99.90;;;;;;5067522;28;20043;-58
2022/07/27 02:25:57;;;;;;;5.15;1.42;;;13.70;99.90;;;;;;5069565;28;20047;-60
2022/07/27 02:28:23;;;;;;;4.97;1.65;;;13.70;99.90;;;;;;5065595;28;20048;-60
2022/07/27 02:30:49;;;;;;;3.85;1.60;;;13.60;99.90;;;;;;5071061;28;20540;-59
2022/07/27 02:33:15;;;;;;;6.35;1.80;;;13.60;99.90;;;;;;5073947;28;20478;-61
2022/07/27 02:35:42;;;;;;;4.00;1.80;;;13.60;99.90;;;;;;5072900;28;20044;-60
2022/07/27 02:38:08;;;;;;;5.15;2.00;;;13.60;99.90;;;;;;5052001;28;20480;-60
2022/07/27 02:40:33;;;;;;;6.28;2.35;;;13.60;99.90;;;;;;5069723;28;20048;-61
2022/07/27 02:42:59;;;;;;;3.47;1.88;;;13.60;99.90;;;;;;5070115;28;20561;-60
2022/07/27 02:45:25;;;;;;;5.43;1.95;;;13.60;99.90;;;;;;5073491;28;20047;-60
2022/07/27 02:47:51;;;;;;;5.53;2.30;;;13.60;99.90;;;;;;5059517;28;20048;-61
2022/07/27 02:50:17;;;;;;;10.95;2.38;;;13.60;99.90;;;;;;5069068;28;20032;-59
2022/07/27 02:52:42;;;;;;;6.30;1.88;;;13.60;99.90;;;;;;5072456;28;20052;-60
2022/07/27 02:55:08;;;;;;;4.38;1.77;;;13.60;99.90;;;;;;5053606;28;20048;-61
2022/07/27 02:57:36;;;;;;;5.75;2.17;;;13.60;99.90;;;;;;5052671;28;20889;-60
2022/07/27 03:00:09;;;;;;;8.52;2.15;;;13.70;99.90;;;;;;5069597;28;20048;-59
2022/07/27 03:02:35;;;;;;;5.13;2.10;;;13.70;99.90;;;;;;5068886;28;20130;-60
2022/07/27 03:05:02;;;;;;;6.28;1.90;;;13.70;99.90;;;;;;5073922;28;20052;-59
2022/07/27 03:07:28;;;;;;;5.13;2.13;;;13.70;99.90;;;;;;5051438;28;20050;-59
2022/07/27 03:09:54;;;;;;;5.00;2.10;;;13.70;99.90;;;;;;5069167;28;20037;-60
2022/07/27 03:12:20;;;;;;;5.20;1.70;;;13.80;99.90;;;;;;5070664;28;20470;-60
2022/07/27 03:14:45;;;;;;;4.32;2.00;;;13.70;99.90;;;;;;5070057;28;20483;-60
2022/07/27 03:17:11;;;;;;;6.30;2.15;;;13.80;99.90;;;;;;5073183;28;20071;-59
2022/07/27 03:19:37;;;;;;;4.53;1.92;;;13.80;99.90;;;;;;5062740;28;20097;-59
2022/07/27 03:22:03;;;;;;;5.07;2.00;;;13.80;99.90;;;;;;5067473;28;20036;-59
2022/07/27 03:24:29;;;;;;;5.03;1.83;;;13.80;99.90;;;;;;5058699;28;20037;-60
2022/07/27 03:26:55;;;;;;;7.15;2.20;;;13.80;99.90;;;;;;5070982;28;20123;-60
2022/07/27 03:29:20;;;;;;;8.65;2.60;;;13.80;99.90;;;;;;5050245;28;20573;-60
2022/07/27 03:31:46;;;;;;;5.45;1.65;;;13.80;99.90;;;;;;5050121;28;20048;-60
2022/07/27 03:34:12;;;;;;;5.32;1.98;;;13.80;99.90;;;;;;5064704;28;20536;-60
2022/07/27 03:36:38;;;;;;;7.30;2.50;;;13.80;99.90;;;;;;5057590;28;20490;-59
2022/07/27 03:39:03;;;;;;;4.93;1.92;;;13.90;99.90;;;;;;5071639;28;20048;-59
2022/07/27 03:41:29;;;;;;;8.18;2.47;;;13.90;99.90;;;;;;5039515;28;20442;-59
2022/07/27 03:43:55;;;;;;;6.18;2.10;;;13.90;99.90;;;;;;5068991;28;20490;-60
2022/07/27 03:46:21;;;;;;;6.68;2.17;;;13.80;99.90;;;;;;5071648;28;20039;-60
2022/07/27 03:48:46;;;;;;;7.18;2.25;;;13.80;99.90;;;;;;5070972;28;20058;-59
2022/07/27 03:51:12;;;;;;;8.18;2.40;;;13.80;99.90;;;;;;5054892;28;20041;-60
2022/07/27 03:53:38;;;;;;;10.20;3.13;;;13.80;99.90;;;;;;5065968;28;20387;-60
2022/07/27 03:56:04;;;;;;;5.25;2.35;;;13.80;99.90;;;;;;5060649;28;20490;-59
2022/07/27 03:58:30;;;;;;;3.83;2.00;;;13.80;99.90;;;;;;5070288;28;20079;-60
2022/07/27 04:00:56;;;;;;;5.15;2.10;;;13.80;99.90;;;;;;5054532;28;20494;-60
2022/07/27 04:03:21;;;;;;;6.45;2.30;;;13.70;99.90;;;;;;5052882;28;20101;-60
2022/07/27 04:05:47;;;;;;;8.05;2.03;;;13.70;99.90;;;;;;5035164;28;20048;-59
2022/07/27 04:08:13;;;;;;;8.48;2.30;;;13.70;99.90;;;;;;5035546;28;20036;-60
2022/07/27 04:10:39;;;;;;;3.65;1.80;;;13.70;99.90;;;;;;5050282;28;20047;-60
2022/07/27 04:13:05;;;;;;;4.47;1.77;;;13.70;99.90;;;;;;5072230;28;20128;-60
2022/07/27 04:15:31;;;;;;;4.93;1.80;;;13.70;99.90;;;;;;5070446;28;20050;-60
2022/07/27 04:17:57;;;;;;;6.05;2.35;;;13.70;99.90;;;;;;5053839;28;20052;-59
2022/07/27 04:20:23;;;;;;;6.63;1.90;;;13.70;99.90;;;;;;5075546;28;20036;-60
2022/07/27 04:22:49;;;;;;;6.18;1.98;;;13.70;99.90;;;;;;5074144;28;20036;-59
2022/07/27 04:25:15;;;;;;;8.70;2.00;;;13.70;99.90;;;;;;5072559;28;20379;-59
2022/07/27 04:27:41;;;;;;;3.50;1.70;;;13.70;99.90;;;;;;5072662;28;20047;-60
2022/07/27 04:30:07;;;;;;;4.03;2.08;;;13.70;99.90;;;;;;5052222;28;20415;-59
2022/07/27 04:32:34;;;;;;;5.40;2.25;;;13.70;99.90;;;;;;5072557;28;20045;-60
2022/07/27 04:34:59;;;;;;;6.20;1.95;;;13.60;99.90;;;;;;5069576;28;20446;-59
2022/07/27 04:37:25;;;;;;;6.05;2.35;;;13.70;99.90;;;;;;5045934;28;20040;-59
2022/07/27 04:39:56;;;;;;;6.45;2.83;;;13.70;99.90;;;;;;5052015;28;20079;-59
2022/07/27 04:42:22;;;;;;;7.78;2.65;;;13.70;99.90;;;;;;5074782;28;20048;-60
2022/07/27 04:44:47;;;;;;;6.55;3.15;;;13.70;99.90;;;;;;5073845;28;20066;-59
2022/07/27 04:47:13;;;;;;;8.40;2.83;;;13.70;99.90;;;;;;5071449;28;20047;-59
2022/07/27 04:49:39;;;;;;;8.40;3.00;;;13.70;99.90;;;;;;5054702;28;20047;-60
2022/07/27 04:52:05;;;;;;;7.38;2.25;;;13.70;99.90;;;;;;5076543;28;20383;-60
2022/07/27 04:54:30;;;;;;;9.27;2.92;;;13.70;99.90;;;;;;5077408;28;20051;-59
2022/07/27 04:56:56;;;;;;;8.77;2.75;;;13.70;99.90;;;;;;5072734;28;20068;-61
2022/07/27 04:59:22;;;;;;;9.43;2.83;;;13.80;99.90;;;;;;5071271;28;20155;-59
2022/07/27 05:01:48;;;;;;;3.92;2.40;;;13.80;99.90;;;;;;5073245;28;20037;-60
2022/07/27 05:04:14;;;;;;;8.13;2.70;;;13.80;99.90;;;;;;5071783;28;20044;-59
2022/07/27 05:06:40;;;;;;;4.93;2.30;;;13.90;99.90;;;;;;5068141;28;20036;-60
2022/07/27 05:09:05;;;;;;;8.93;2.50;;;14.00;99.90;;;;;;5048809;28;20105;-60
2022/07/27 05:11:31;;;;;;;8.27;2.25;;;14.00;99.90;;;;;;5071834;28;20628;-60
2022/07/27 05:13:57;;;;;;;5.20;2.30;;;14.10;99.90;;;;;;5059587;28;20102;-60
2022/07/27 05:16:23;;;;;;;8.50;2.83;;;14.10;99.90;;;;;;5074914;28;20044;-59
2022/07/27 05:18:49;;;;;;;6.93;2.28;;;14.10;99.90;;;;;;5071697;28;20051;-59
2022/07/27 05:21:15;;;;;;;6.32;2.42;;;14.20;99.90;;;;;;5063253;28;20119;-60
2022/07/27 05:23:40;;;;;;;8.05;2.22;;;14.20;99.90;;;;;;5058736;28;20202;-61
2022/07/27 05:26:06;;;;;;;6.85;1.90;;;14.20;99.90;;;;;;5071305;28;20040;-60
2022/07/27 05:28:32;;;;;;;6.60;2.13;;;14.20;99.90;;;;;;5054656;28;20112;-60
2022/07/27 05:30:58;;;;;;;12.68;3.13;;;14.20;99.90;;;;;;5063763;28;20521;-60
2022/07/27 05:33:24;;;;;;;8.75;2.25;;;14.30;99.90;;;;;;5052184;28;20103;-60
2022/07/27 05:35:50;;;;;;;6.20;2.10;;;14.30;99.90;;;;;;5073800;28;20049;-59
2022/07/27 05:38:16;;;;;;;11.27;2.60;;;14.40;99.90;;;;;;5069408;28;22208;-60
2022/07/27 05:40:45;;;;;;;9.35;2.25;;;14.40;99.90;;;;;;5069060;28;20048;-59
2022/07/27 05:43:11;;;;;;;6.50;2.20;;;14.40;99.90;;;;;;5073813;28;20036;-60
2022/07/27 05:45:37;;;;;;;9.27;2.20;;;14.50;99.90;;;;;;5077821;28;20052;-59
2022/07/27 05:48:03;;;;;;;8.57;2.03;;;14.50;99.90;;;;;;5057173;28;20045;-60
2022/07/27 05:50:29;;;;;;;8.73;2.00;;;14.60;99.90;;;;;;5058641;28;20048;-60
2022/07/27 05:52:57;;;;;;;11.98;2.17;;;14.60;99.90;;;;;;5072068;28;20059;-59
2022/07/27 05:55:23;;;;;;;6.68;1.77;;;14.70;99.90;;;;;;5051925;28;20040;-59
2022/07/27 05:57:49;;;;;;;11.63;2.00;;;14.80;99.90;;;;;;5078500;28;20186;-60
2022/07/27 06:00:15;;;;;;;7.65;1.90;;;14.90;99.90;;;;;;5060799;28;20533;-60
2022/07/27 06:02:41;;;;;;;9.18;2.00;;;14.90;99.90;;;;;;5075784;28;20048;-60
2022/07/27 06:05:07;;;;;;;6.07;1.85;;;15.00;99.90;;;;;;5071253;28;20174;-60
2022/07/27 06:10:17;;;;;;;7.15;1.73;;;15.10;99.90;;;;;;5070560;28;20053;-60
2022/07/27 06:12:45;;;;;;;5.05;1.60;;;15.10;99.90;;;;;;5045192;28;20048;-66
2022/07/27 06:15:12;;;;;;;10.65;2.50;;;15.20;99.90;;;;;;5032538;28;20052;-66
2022/07/27 06:17:38;;;;;;;13.10;2.65;;;15.30;99.90;;;;;;5029803;28;20093;-66
2022/07/27 06:20:05;;;;;;;12.20;2.35;;;15.30;99.90;;;;;;5046764;28;20044;-66
2022/07/27 06:22:31;;;;;;;8.45;1.85;;;15.40;99.90;;;;;;5041951;28;20048;-66
2022/07/27 06:24:57;;;;;;;7.55;1.65;;;15.40;99.90;;;;;;5038325;28;20048;-66
2022/07/27 06:27:23;;;;;;;8.88;2.10;;;15.50;99.90;;;;;;5015761;28;20407;-66
2022/07/27 06:29:49;;;;;;;6.45;1.95;;;15.50;99.90;;;;;;5045555;28;20052;-66
2022/07/27 06:32:15;;;;;;;10.88;2.50;;;15.60;99.90;;;;;;5059336;28;20055;-66
2022/07/27 06:34:41;;;;;;;8.73;1.95;;;15.70;99.90;;;;;;5050399;28;20090;-67
2022/07/27 06:37:07;;;;;;;8.00;1.83;;;15.70;99.90;;;;;;5016101;28;20383;-66
2022/07/27 06:39:32;;;;;;;7.57;1.60;;;15.80;99.90;;;;;;5031855;28;20041;-66
2022/07/27 06:41:58;;;;;;;7.97;1.77;;;15.80;99.90;;;;;;5041780;28;20051;-66
2022/07/27 06:44:24;;;;;;;5.90;1.42;;;15.90;99.90;;;;;;5019751;28;20044;-66
2022/07/27 06:46:50;;;;;;;8.18;1.92;;;16.00;99.90;;;;;;5051358;28;20565;-66
2022/07/27 06:49:15;;;;;;;8.93;2.00;;;16.00;99.90;;;;;;5039857;28;20043;-67
2022/07/27 06:51:41;;;;;;;5.32;1.58;;;16.10;99.90;;;;;;5038987;28;20048;-66
2022/07/27 06:54:07;;;;;;;6.20;1.60;;;16.20;99.90;;;;;;5062775;28;20097;-67
2022/07/27 06:56:33;;;;;;;5.80;1.58;;;16.30;99.90;;;;;;5031005;28;20078;-67
2022/07/27 06:58:59;;;;;;;6.75;1.17;;;16.40;99.90;;;;;;5045895;28;20047;-67
2022/07/27 07:01:25;;;;;;;8.40;1.60;;;16.50;99.90;;;;;;5056012;28;20720;-67
2022/07/27 07:03:51;;;;;;;4.22;1.30;;;16.60;99.20;;;;;;5031610;28;20075;-67
2022/07/27 07:06:17;;;;;;;6.25;1.80;;;16.70;98.60;;;;;;5033998;28;20188;-67
2022/07/27 07:08:43;;;;;;;5.47;1.50;;;16.80;97.90;;;;;;5036724;28;20578;-67
2022/07/27 07:11:10;;;;;;;5.95;1.50;;;16.90;97.60;;;;;;5035030;28;20059;-67
2022/07/27 07:13:36;;;;;;;4.78;1.20;;;17.00;97.30;;;;;;5051593;28;20132;-66
2022/07/27 07:16:03;;;;;;;9.35;1.60;;;17.20;97.00;;;;;;5032759;28;20044;-67
2022/07/27 07:18:28;;;;;;;4.43;1.33;;;17.30;96.40;;;;;;5048311;28;20101;-67
2022/07/27 07:20:54;;;;;;;9.15;1.50;;;17.30;96.00;;;;;;5050439;28;20052;-67
2022/07/27 07:23:20;;;;;;;9.10;1.50;;;17.30;95.80;;;;;;5024445;28;20525;-67
2022/07/27 07:25:46;;;;;;;8.48;1.70;;;17.20;95.70;;;;;;5039801;28;20040;-66
2022/07/27 07:28:12;;;;;;;9.07;1.70;;;17.10;95.90;;;;;;5053359;28;20039;-67
2022/07/27 07:30:38;;;;;;;7.13;1.65;;;17.00;96.40;;;;;;5055229;28;20056;-67
2022/07/27 07:33:04;;;;;;;5.47;1.55;;;16.90;96.70;;;;;;5049414;28;20056;-67
2022/07/27 07:35:30;;;;;;;4.95;1.52;;;16.90;97.00;;;;;;5032870;28;20119;-67
2022/07/27 07:37:56;;;;;;;7.70;1.90;;;16.90;97.00;;;;;;5024806;28;20079;-67
2022/07/27 07:40:22;;;;;;;4.97;1.98;;;16.90;97.00;;;;;;5058539;28;20612;-67
2022/07/27 07:42:51;;;;;;;3.83;1.60;;;16.90;96.90;;;;;;5048567;28;20045;-66
2022/07/27 07:45:17;;;;;;;8.02;2.03;;;17.00;96.90;;;;;;5033579;28;20044;-66
2022/07/27 07:47:43;;;;;;;17.80;2.35;;;17.00;97.50;;;;;;5049532;28;20119;-66
2022/07/27 07:50:09;;;;;;;7.57;2.20;;;16.90;98.10;;;;;;5035210;28;20043;-67
2022/07/27 07:52:35;;;;;;;10.13;2.33;;;16.80;98.50;;;;;;5046431;28;20052;-66
2022/07/27 07:55:01;;;;;;;6.30;1.77;;;16.70;98.80;;;;;;5032767;28;20394;-67
2022/07/27 07:57:27;;;;;;;8.00;2.17;;;16.60;99.00;;;;;;5031791;28;20040;-67
2022/07/27 07:59:53;;;;;;;6.70;1.95;;;16.60;99.00;;;;;;5020118;28;20044;-66
2022/07/27 08:02:20;;;;;;;9.25;2.15;;;16.50;99.10;;;;;;5055524;28;20053;-67
2022/07/27 08:04:46;;;;;;;5.78;1.80;;;16.50;99.10;;;;;;5052655;28;20040;-66
2022/07/27 08:07:12;;;;;;;8.43;1.92;;;16.50;99.20;;;;;;5054497;28;20044;-66
2022/07/27 08:09:38;;;;;;;7.18;1.90;;;16.50;99.30;;;;;;5033198;28;20052;-66
2022/07/27 08:12:05;;;;;;;3.65;1.60;;;16.60;99.30;;;;;;5053234;28;20445;-66
2022/07/27 08:14:31;;;;;;;6.00;2.03;;;16.60;99.20;;;;;;5026630;28;20044;-66
2022/07/27 08:16:57;;;;;;;6.72;2.05;;;16.70;99.00;;;;;;5033777;28;20076;-66
2022/07/27 08:19:23;;;;;;;10.02;1.40;;;16.70;98.90;;;;;;5028639;28;20507;-66
2022/07/27 08:21:49;;;;;;;7.65;1.40;;;16.70;98.80;;;;;;5035056;28;20033;-66
2022/07/27 08:24:15;;;;;;;9.45;2.08;;;16.70;98.50;;;;;;5047950;28;20515;-66
2022/07/27 08:26:41;;;;;;;5.32;1.40;;;16.80;98.50;;;;;;5024004;28;20055;-67
2022/07/27 08:29:07;;;;;;;6.70;1.50;;;16.90;98.30;;;;;;5044584;28;20049;-67
2022/07/27 08:31:33;;;;;;;6.18;1.40;;;17.00;97.90;;;;;;5050239;28;20127;-66
2022/07/27 08:33:58;;;;;;;6.05;1.20;;;17.10;97.30;;;;;;5039934;28;20495;-66
2022/07/27 08:36:24;;;;;;;4.78;1.27;;;17.10;97.00;;;;;;5053563;28;20052;-67
2022/07/27 08:38:50;;;;;;;5.60;2.17;;;17.10;96.80;;;;;;5056213;28;20531;-66
2022/07/27 08:41:18;;;;;;;6.35;1.25;;;17.30;96.70;;;;;;5053682;28;20131;-66
2022/07/27 08:43:47;;;;;;;5.28;1.27;;;17.40;96.60;;;;;;5043699;28;20063;-66
2022/07/27 08:46:16;;;;;;;5.00;1.20;;;17.50;96.30;;;;;;5032364;28;20040;-67
2022/07/27 08:48:43;;;;;;;6.10;1.20;;;17.60;95.60;;;;;;5024533;28;20040;-67
2022/07/27 08:51:10;;;;;;;5.72;1.20;;;17.70;95.00;;;;;;5051704;28;20048;-66
2022/07/27 08:53:36;;;;;;;10.60;1.77;;;17.80;94.60;;;;;;5047415;28;20468;-66
2022/07/27 08:56:03;;;;;;;7.50;1.30;;;17.80;93.90;;;;;;5036702;28;20045;-66
2022/07/27 08:58:29;;;;;;;8.13;1.20;;;17.90;93.30;;;;;;5033033;28;20063;-67
2022/07/27 09:00:55;;;;;;;6.95;1.48;;;18.00;92.50;;;;;;5036892;28;20039;-67
2022/07/27 09:03:22;;;;;;;4.40;1.20;;;18.10;92.40;;;;;;5040308;28;20055;-67
2022/07/27 09:05:54;;;;;;;2.90;1.08;;;18.30;92.20;;;;;;5037626;28;20055;-66
2022/07/27 09:08:26;;;;;;;5.15;1.35;;;18.50;91.20;;;;;;5070915;28;20066;-67
2022/07/27 09:10:54;;;;;;;3.87;1.30;;;18.70;90.30;;;;;;5060363;28;20097;-67
2022/07/27 09:13:32;;;;;;;11.20;1.58;;;18.90;89.50;;;;;;5052021;28;20051;-67
2022/07/27 09:16:03;;;;;;;3.25;1.02;;;19.00;88.70;;;;;;5036485;28;20119;-67
2022/07/27 09:18:32;;;;;;;5.05;1.08;;;19.20;88.20;;;;;;5065810;28;20186;-67
2022/07/27 09:21:11;;;;;;;5.15;1.13;;;19.30;86.80;;;;;;5067164;28;20079;-67
2022/07/27 09:23:39;;;;;;;5.13;1.10;;;19.50;84.60;;;;;;5048165;28;20071;-67
2022/07/27 09:26:25;;;;;;;4.63;0.90;;;19.50;83.10;;;;;;5071185;28;20078;-67
2022/07/27 09:28:56;;;;;;;5.45;1.02;;;19.50;82.80;;;;;;5059409;28;20099;-67
2022/07/27 09:31:22;;;;;;;6.65;1.35;;;19.60;82.60;;;;;;5045520;28;20063;-67
2022/07/27 09:33:50;;;;;;;4.68;1.27;;;19.60;82.30;;;;;;5046257;28;20110;-67
2022/07/27 09:36:18;;;;;;;5.28;1.20;;;19.60;81.70;;;;;;5058192;28;20482;-67
2022/07/27 09:38:56;;;;;;;5.78;1.20;;;19.60;81.70;;;;;;5055978;28;20066;-67
2022/07/27 09:41:22;;;;;;;5.95;0.85;;;19.70;81.40;;;;;;5056827;28;20059;-67
2022/07/27 09:43:51;;;;;;;5.05;1.10;;;19.80;80.60;;;;;;5053522;28;20044;-67
2022/07/27 09:46:32;;;;;;;4.00;1.10;;;19.90;79.00;;;;;;5050689;28;20076;-67
2022/07/27 09:48:58;;;;;;;7.57;1.35;;;20.10;79.10;;;;;;5059404;28;20048;-67
2022/07/27 09:51:25;;;;;;;4.00;1.30;;;20.10;78.60;;;;;;5049824;28;20052;-67
2022/07/27 09:53:52;;;;;;;6.03;1.33;;;20.00;78.10;;;;;;5038139;28;20044;-67
2022/07/27 09:56:25;;;;;;;2.63;0.90;;;20.10;78.10;;;;;;5040747;28;20044;-67
2022/07/27 09:58:55;;;;;;;6.53;1.35;;;20.20;78.60;;;;;;5047541;28;20036;-67
2022/07/27 10:01:25;;;;;;;4.05;1.10;;;20.30;78.40;;;;;;5017624;28;20474;-67
2022/07/27 10:03:53;;;;;;;3.00;1.00;;;20.40;77.80;;;;;;5054304;28;21385;-67
2022/07/27 10:06:21;;;;;;;8.93;1.58;;;20.40;76.90;;;;;;5047680;28;20083;-67
2022/07/27 10:08:49;;;;;;;5.05;1.13;;;20.40;76.60;;;;;;5052257;28;20212;-67
2022/07/27 10:11:16;;;;;;;4.50;1.10;;;20.30;76.70;;;;;;5056297;28;20044;-67
2022/07/27 10:13:42;;;;;;;4.35;0.95;;;20.60;75.80;;;;;;5051726;28;20502;-67
2022/07/27 10:16:18;;;;;;;3.20;1.10;;;21.00;75.00;;;;;;5061233;28;20103;-67
2022/07/27 10:18:55;;;;;;;5.20;1.10;;;21.20;73.90;;;;;;5058291;28;20055;-67
2022/07/27 10:21:23;;;;;;;9.98;1.02;;;21.10;72.80;;;;;;5060015;28;20494;-67
2022/07/27 10:24:10;;;;;;;3.45;1.15;;;20.90;72.50;;;;;;5058421;28;20051;-67
2022/07/27 10:26:41;;;;;;;5.30;0.90;;;20.70;72.00;;;;;;5043743;28;20046;-67
2022/07/27 10:29:13;;;;;;;3.25;0.82;;;20.80;72.00;;;;;;5045098;28;20051;-67
2022/07/27 10:31:54;;;;;;;6.35;1.17;;;21.00;72.30;;;;;;5058617;28;20051;-67
2022/07/27 10:34:40;;;;;;;3.20;0.70;;;21.40;74.30;;;;;;5045444;28;20409;-67
2022/07/27 10:37:22;;;;;;;3.70;0.85;;;21.60;71.60;;;;;;5064557;28;20047;-67
2022/07/27 10:42:46;;;;;;;2.08;0.75;;;21.60;70.60;;;;;;5039138;28;20040;-67
2022/07/27 10:45:14;;;;;;;2.28;0.63;;;21.30;70.20;;;;;;5030236;28;20387;-67
2022/07/27 10:47:46;;;;;;;3.47;0.90;;;21.20;70.70;;;;;;5049758;28;20613;-67
2022/07/27 10:50:14;;;;;;;2.75;0.70;;;21.40;71.40;;;;;;5047778;28;20516;-67
2022/07/27 10:52:41;;;;;;;3.88;0.90;;;21.70;71.00;;;;;;5035104;28;20089;-67
2022/07/27 10:55:07;;;;;;;6.53;0.85;;;22.00;68.90;;;;;;5048658;28;20497;-68
2022/07/27 10:57:35;;;;;;;4.07;0.80;;;22.20;67.50;;;;;;5049220;28;20513;-67
2022/07/27 11:00:08;;;;;;;3.17;0.70;;;22.10;66.70;;;;;;5042856;28;20536;-67
2022/07/27 11:02:39;;;;;;;2.08;0.77;;;21.80;66.50;;;;;;5042091;28;20511;-67
2022/07/27 11:05:06;;;;;;;5.87;0.80;;;21.50;67.30;;;;;;5064138;28;20039;-67
2022/07/27 11:07:32;;;;;;;6.45;1.00;;;21.40;68.40;;;;;;5051417;28;20131;-67
2022/07/27 11:10:00;;;;;;;4.63;0.90;;;21.50;68.90;;;;;;5049255;28;20036;-67
2022/07/27 11:12:28;;;;;;;2.60;0.80;;;21.40;67.80;;;;;;5049346;28;20040;-67
2022/07/27 11:14:57;;;;;;;5.15;1.17;;;21.30;67.50;;;;;;5054654;28;20383;-67
2022/07/27 11:17:28;;;;;;;2.85;0.80;;;21.10;68.10;;;;;;5037787;28;20040;-67
2022/07/27 11:19:56;;;;;;;3.35;1.08;;;20.90;69.10;;;;;;5056344;28;20115;-67
2022/07/27 11:22:48;;;;;;;4.82;1.10;;;20.80;69.50;;;;;;5016516;28;20047;-67
2022/07/27 11:25:14;;;;;;;3.88;1.00;;;20.70;69.30;;;;;;5039309;28;20130;-68
2022/07/27 11:27:47;;;;;;;3.50;0.70;;;20.60;69.70;;;;;;5038130;28;20205;-67
2022/07/27 11:30:25;;;;;;;3.60;0.80;;;20.70;70.30;;;;;;5046702;28;20048;-68
2022/07/27 11:32:51;;;;;;;4.43;1.00;;;21.10;70.70;;;;;;5065352;28;20490;-67
2022/07/27 11:35:17;;;;;;;4.57;0.90;;;21.30;69.80;;;;;;5055278;28;20047;-68
2022/07/27 11:38:00;;;;;;;3.72;0.95;;;21.30;69.90;;;;;;5034466;28;20048;-68
2022/07/27 11:40:27;;;;;;;5.53;1.05;;;21.20;69.50;;;;;;5049881;28;20394;-67
2022/07/27 11:42:53;;;;;;;6.78;1.15;;;21.10;69.10;;;;;;5047825;28;20121;-67
2022/07/27 11:45:28;;;;;;;3.28;0.77;;;21.00;69.60;;;;;;5045539;28;20048;-67
2022/07/27 11:47:57;;;;;;;4.40;0.60;;;21.00;70.00;;;;;;5059132;28;20472;-68
2022/07/27 11:50:23;;;;;;;3.55;0.90;;;20.90;69.20;;;;;;5050747;28;20055;-67
2022/07/27 11:52:56;;;;;;;5.68;1.05;;;20.90;69.40;;;;;;5036108;28;20052;-67
2022/07/27 11:55:23;;;;;;;5.60;0.95;;;21.00;69.40;;;;;;5025181;28;20044;-68
2022/07/27 11:57:49;;;;;;;4.50;1.10;;;21.00;69.70;;;;;;5050796;28;20393;-68
2022/07/27 12:00:15;;;;;;;4.60;1.00;;;20.90;70.90;;;;;;5034138;28;20048;-68
2022/07/27 12:02:48;;;;;;;4.88;1.00;;;20.80;71.40;;;;;;5047528;28;20410;-68
2022/07/27 12:05:14;;;;;;;4.20;0.85;;;20.70;70.60;;;;;;5054895;28;20054;-68
2022/07/27 12:07:43;;;;;;;3.55;0.88;;;20.80;70.90;;;;;;5047943;28;20482;-68
2022/07/27 12:10:10;;;;;;;2.50;0.90;;;21.00;70.20;;;;;;5052695;28;20047;-67
2022/07/27 12:12:36;;;;;;;3.38;1.27;;;21.00;69.70;;;;;;5027619;28;20041;-68
2022/07/27 12:15:19;;;;;;;1.88;0.85;;;21.00;69.50;;;;;;5039971;28;20481;-68
2022/07/27 12:17:46;;;;;;;4.90;0.98;;;21.00;69.40;;;;;;5044827;28;20528;-68
2022/07/27 12:20:14;;;;;;;3.78;1.00;;;20.90;69.30;;;;;;5056537;28;20044;-68
2022/07/27 12:22:42;;;;;;;7.93;1.55;;;20.90;69.90;;;;;;5056612;28;20044;-68
2022/07/27 12:25:17;;;;;;;3.55;1.27;;;20.90;70.00;;;;;;5048591;28;20106;-67
2022/07/27 12:27:58;;;;;;;5.47;1.20;;;21.00;70.00;;;;;;5058808;28;20115;-68
2022/07/27 12:30:41;;;;;;;3.70;0.93;;;21.10;68.90;;;;;;5039960;28;20897;-67
2022/07/27 12:33:27;;;;;;;4.30;0.90;;;21.10;67.90;;;;;;5059142;28;20083;-68
2022/07/27 12:35:54;;;;;;;6.97;1.10;;;21.30;68.80;;;;;;5050536;28;20055;-67
2022/07/27 12:38:20;;;;;;;5.50;1.20;;;21.60;68.50;;;;;;5032538;28;20052;-68
2022/07/27 12:40:48;;;;;;;6.47;0.90;;;22.10;68.90;;;;;;5036837;28;20070;-68
2022/07/27 12:43:17;;;;;;;2.08;0.80;;;22.40;67.50;;;;;;5035801;28;20820;-68
2022/07/27 12:45:43;;;;;;;7.40;1.00;;;22.50;66.20;;;;;;5048446;28;20071;-67
2022/07/27 12:48:11;;;;;;;4.55;0.85;;;22.40;64.80;;;;;;5041854;28;20044;-68
2022/07/27 12:50:42;;;;;;;4.05;0.93;;;22.60;64.30;;;;;;5055867;28;20510;-68
2022/07/27 12:53:09;;;;;;;4.35;0.80;;;22.80;63.60;;;;;;5051173;28;20623;-68
2022/07/27 12:55:36;;;;;;;6.40;1.33;;;23.00;63.70;;;;;;5053775;28;20041;-68
2022/07/27 12:58:02;;;;;;;4.55;1.00;;;23.00;62.80;;;;;;5019984;28;20055;-68